Time;durP1;ratioP1;P1;durP2;ratioP2;P2;SDS_P1;SDS_P2;PMS_P1;PMS_P2;Temp;Humidity;BMP_temperature;BMP_pressure;BME280_temperature;BME280_humidity;BME280_pressure;Samples;Min_cycle;Max_cycle;Signal;HPM_P1;HPM_P2
2023/07/19 00:01:45;;;;;;;5.63;5.03;;;;;;;20.00;62.82;96427.22;5114860;28;20155;-65
2023/07/19 00:04:13;;;;;;;10.85;5.22;;;;;;;20.08;61.74;96419.50;5115166;28;20047;-65
2023/07/19 00:06:40;;;;;;;7.32;5.03;;;;;;;20.18;62.10;96424.94;5115152;28;20420;-65
2023/07/19 00:09:08;;;;;;;9.77;5.07;;;;;;;20.24;61.40;96428.06;5114956;28;20047;-64
2023/07/19 00:11:35;;;;;;;6.25;4.60;;;;;;;20.31;62.45;96422.16;5115108;28;20109;-65
2023/07/19 00:14:05;;;;;;;8.25;5.55;;;;;;;20.40;62.97;96423.22;5114828;28;20481;-65
2023/07/19 00:16:34;;;;;;;7.47;4.90;;;;;;;20.42;62.98;96416.00;5114847;28;20047;-65
2023/07/19 00:19:02;;;;;;;7.32;4.63;;;;;;;20.49;63.30;96418.97;5114829;28;20058;-65
2023/07/19 00:21:29;;;;;;;5.97;5.25;;;;;;;20.48;62.48;96413.78;5114756;28;20051;-65
2023/07/19 00:23:57;;;;;;;15.73;5.30;;;;;;;20.51;62.28;96424.16;5114724;28;20412;-64
2023/07/19 00:26:24;;;;;;;6.38;4.90;;;;;;;20.49;62.51;96418.97;5114629;28;20404;-65
2023/07/19 00:28:52;;;;;;;6.57;4.80;;;;;;;20.48;62.49;96419.09;5114661;28;20044;-65
2023/07/19 00:31:19;;;;;;;9.38;4.78;;;;;;;20.41;62.94;96419.59;5114587;28;20051;-65
2023/07/19 00:33:48;;;;;;;9.27;4.68;;;;;;;20.41;63.69;96426.75;5114511;28;20104;-65
2023/07/19 00:36:16;;;;;;;5.95;4.82;;;;;;;20.34;63.00;96418.41;5114380;28;20043;-65
2023/07/19 00:38:43;;;;;;;6.03;4.88;;;;;;;20.28;63.83;96426.84;5114243;28;20091;-65
2023/07/19 00:41:11;;;;;;;6.70;4.93;;;;;;;20.23;63.98;96427.25;5114775;28;20051;-65
2023/07/19 00:43:38;;;;;;;8.55;5.32;;;;;;;20.20;64.34;96422.19;5114260;28;20370;-65
2023/07/19 00:46:07;;;;;;;6.05;5.15;;;;;;;20.18;64.74;96424.94;5113764;28;20048;-65
2023/07/19 00:48:35;;;;;;;6.57;5.07;;;;;;;20.16;64.74;96426.00;5114104;28;20064;-65
2023/07/19 00:51:04;;;;;;;8.48;4.90;;;;;;;20.13;64.80;96429.75;5114225;28;20050;-65
2023/07/19 00:53:34;;;;;;;6.90;5.50;;;;;;;20.07;65.31;96425.78;5114105;28;20097;-65
2023/07/19 00:56:01;;;;;;;9.15;5.40;;;;;;;20.01;64.92;96425.41;5114167;28;20393;-65
2023/07/19 00:58:28;;;;;;;6.75;4.75;;;;;;;19.95;65.53;96424.06;5113949;28;20118;-65
2023/07/19 01:00:56;;;;;;;7.28;5.18;;;;;;;19.91;66.31;96418.16;5114130;28;20039;-65
2023/07/19 01:03:23;;;;;;;6.10;4.93;;;;;;;19.85;66.31;96415.13;5113910;28;20043;-65
2023/07/19 01:05:50;;;;;;;6.43;5.05;;;;;;;19.78;65.79;96414.78;5114085;28;20075;-64
2023/07/19 01:08:19;;;;;;;5.05;4.50;;;;;;;19.76;66.31;96414.88;5113878;28;20123;-65
2023/07/19 01:10:47;;;;;;;6.90;4.75;;;;;;;19.69;66.24;96408.38;5113826;28;20043;-65
2023/07/19 01:13:15;;;;;;;12.77;5.50;;;;;;;19.72;66.38;96413.44;5113965;28;20077;-65
2023/07/19 01:15:42;;;;;;;8.48;5.30;;;;;;;19.67;66.49;96404.97;5113739;28;20044;-65
2023/07/19 01:18:09;;;;;;;6.35;5.57;;;;;;;19.72;66.87;96401.97;5113756;28;20047;-65
2023/07/19 01:20:37;;;;;;;6.82;4.97;;;;;;;19.67;66.30;96397.88;5114000;28;20051;-65
2023/07/19 01:23:05;;;;;;;7.50;5.25;;;;;;;19.66;66.93;96393.50;5113917;28;20048;-65
2023/07/19 01:25:32;;;;;;;8.80;5.30;;;;;;;19.66;67.10;96403.28;5113757;28;20450;-65
2023/07/19 01:28:00;;;;;;;5.80;5.20;;;;;;;19.68;65.87;96393.38;5113597;28;20130;-65
2023/07/19 01:30:27;;;;;;;5.97;5.15;;;;;;;19.79;66.84;96405.84;5113654;28;20043;-65
2023/07/19 01:32:54;;;;;;;5.15;4.65;;;;;;;19.82;67.00;96409.09;5113528;28;20044;-65
2023/07/19 01:35:22;;;;;;;7.30;4.70;;;;;;;19.82;67.58;96406.44;5113686;28;20374;-65
2023/07/19 01:37:49;;;;;;;5.25;4.45;;;;;;;19.81;67.24;96420.66;5113661;28;20054;-65
2023/07/19 01:40:18;;;;;;;7.05;5.53;;;;;;;19.77;67.89;96413.91;5113475;28;20097;-65
2023/07/19 01:42:45;;;;;;;5.97;4.80;;;;;;;19.77;67.79;96410.41;5113527;28;20535;-64
2023/07/19 01:45:13;;;;;;;7.45;5.13;;;;;;;19.70;68.00;96412.69;5113345;28;20097;-65
2023/07/19 01:47:40;;;;;;;9.18;4.80;;;;;;;19.69;67.43;96414.50;5113422;28;20051;-65
2023/07/19 01:50:08;;;;;;;5.38;4.85;;;;;;;19.75;67.21;96413.19;5113307;28;20134;-65
2023/07/19 01:52:35;;;;;;;11.75;5.38;;;;;;;19.76;67.79;96420.19;5113530;28;20477;-65
2023/07/19 01:55:02;;;;;;;9.48;5.32;;;;;;;19.74;67.72;96419.44;5113334;28;20117;-65
2023/07/19 01:57:31;;;;;;;5.85;4.90;;;;;;;19.73;67.71;96412.47;5116002;27;20051;-65
2023/07/19 01:59:58;;;;;;;7.68;5.00;;;;;;;19.69;68.35;96406.53;5117619;28;20461;-65
2023/07/19 02:02:26;;;;;;;6.28;5.35;;;;;;;19.66;68.84;96403.28;5117374;28;20058;-65
2023/07/19 02:04:53;;;;;;;9.55;5.32;;;;;;;19.58;69.02;96395.94;5117450;28;20040;-65
2023/07/19 02:07:20;;;;;;;10.27;5.50;;;;;;;19.56;69.20;96403.16;5117490;28;20063;-65
2023/07/19 02:09:48;;;;;;;6.80;5.00;;;;;;;19.53;68.38;96404.22;5117486;28;20135;-65
2023/07/19 02:12:15;;;;;;;7.50;5.15;;;;;;;19.61;67.79;96394.84;5117298;28;20086;-65
2023/07/19 02:14:43;;;;;;;6.47;4.93;;;;;;;19.70;67.22;96397.63;5117240;28;20577;-65
2023/07/19 02:17:11;;;;;;;9.07;5.30;;;;;;;19.79;67.11;96401.38;5116964;28;20043;-65
2023/07/19 02:19:38;;;;;;;5.60;4.90;;;;;;;19.86;66.94;96406.22;5117153;28;20057;-65
2023/07/19 02:22:06;;;;;;;9.05;4.57;;;;;;;19.93;66.67;96408.25;5117083;28;20044;-65
2023/07/19 02:24:33;;;;;;;5.43;4.80;;;;;;;20.04;67.63;96406.59;5117034;28;20044;-65
2023/07/19 02:27:00;;;;;;;5.95;5.15;;;;;;;20.10;68.33;96411.41;5116972;28;20093;-65
2023/07/19 02:29:28;;;;;;;7.78;5.68;;;;;;;20.10;68.76;96407.94;5116947;28;20131;-65
2023/07/19 02:31:57;;;;;;;6.65;4.65;;;;;;;20.10;68.87;96407.94;5116834;28;20169;-65
2023/07/19 02:34:24;;;;;;;5.93;5.32;;;;;;;20.09;68.30;96409.75;5116754;28;20480;-65
2023/07/19 02:36:52;;;;;;;6.78;5.43;;;;;;;20.10;68.31;96402.63;5116816;28;20044;-65
2023/07/19 02:39:20;;;;;;;11.65;5.18;;;;;;;20.08;68.44;96414.19;5116754;28;20556;-65
2023/07/19 02:41:47;;;;;;;7.10;5.07;;;;;;;20.07;68.29;96412.50;5116641;28;20125;-65
2023/07/19 02:44:14;;;;;;;6.80;5.20;;;;;;;20.04;68.46;96407.44;5116619;28;20054;-65
2023/07/19 02:46:41;;;;;;;5.68;5.10;;;;;;;19.87;67.41;96410.56;5116399;28;20051;-65
2023/07/19 02:49:11;;;;;;;8.07;4.88;;;;;;;19.73;67.46;96401.00;5116754;28;20054;-65
2023/07/19 02:51:38;;;;;;;10.13;5.70;;;;;;;19.73;67.51;96404.50;5116386;28;20122;-65
2023/07/19 02:54:05;;;;;;;10.07;5.47;;;;;;;19.77;67.53;96397.13;5116508;28;20122;-65
2023/07/19 02:56:32;;;;;;;6.10;4.93;;;;;;;19.73;67.45;96391.25;5116501;28;20040;-65
2023/07/19 02:58:59;;;;;;;7.38;5.28;;;;;;;19.69;67.24;96393.28;5116427;28;20056;-65
2023/07/19 03:01:27;;;;;;;7.55;4.80;;;;;;;19.74;67.29;96390.28;5116405;28;20126;-65
2023/07/19 03:03:54;;;;;;;8.20;5.07;;;;;;;19.72;67.11;96397.53;5116455;28;20623;-65
2023/07/19 03:06:23;;;;;;;6.57;5.25;;;;;;;19.82;66.06;96402.94;5116291;28;20075;-65
2023/07/19 03:08:50;;;;;;;8.05;5.03;;;;;;;19.99;66.47;96398.97;5115745;28;20058;-65
2023/07/19 03:11:17;;;;;;;6.53;5.07;;;;;;;20.08;65.74;96392.94;5116137;28;20075;-65
2023/07/19 03:13:44;;;;;;;7.97;4.90;;;;;;;20.19;65.03;96399.22;5116083;28;20039;-65
2023/07/19 03:16:12;;;;;;;6.25;5.10;;;;;;;20.27;64.23;96395.97;5116345;28;20136;-65
2023/07/19 03:18:39;;;;;;;7.30;5.43;;;;;;;20.37;63.97;96396.06;5115779;28;20489;-65
2023/07/19 03:21:06;;;;;;;7.50;5.68;;;;;;;20.54;64.00;96392.06;5115905;28;20507;-65
2023/07/19 03:23:35;;;;;;;10.23;5.38;;;;;;;20.60;63.36;96393.34;5115897;28;20050;-65
2023/07/19 03:26:03;;;;;;;8.13;5.10;;;;;;;20.71;62.99;96402.13;5115909;28;20510;-65
2023/07/19 03:28:31;;;;;;;8.95;4.95;;;;;;;20.83;63.44;96399.47;5115884;28;20048;-65
2023/07/19 03:30:59;;;;;;;8.95;5.63;;;;;;;20.88;62.77;96397.25;5115838;28;20039;-65
2023/07/19 03:33:27;;;;;;;6.60;5.32;;;;;;;20.95;63.19;96400.31;5115625;28;20051;-65
2023/07/19 03:35:54;;;;;;;8.60;5.28;;;;;;;21.04;63.00;96398.69;5115612;28;20054;-65
2023/07/19 03:38:22;;;;;;;9.32;5.53;;;;;;;21.12;63.28;96404.19;5115539;28;20143;-65
2023/07/19 03:40:50;;;;;;;6.85;4.90;;;;;;;21.16;63.07;96402.16;5115461;28;20052;-65
2023/07/19 03:43:18;;;;;;;6.82;5.35;;;;;;;21.17;62.71;96402.03;5115568;28;20076;-65
2023/07/19 03:45:45;;;;;;;7.18;5.03;;;;;;;21.25;62.14;96401.34;5115393;28;20467;-65
2023/07/19 03:48:12;;;;;;;5.97;5.38;;;;;;;21.33;62.43;96396.25;5115750;28;20070;-65
2023/07/19 03:50:39;;;;;;;9.18;5.22;;;;;;;21.48;62.23;96393.25;5115518;28;20062;-65
2023/07/19 03:53:06;;;;;;;7.15;5.38;;;;;;;21.68;61.14;96393.38;5115565;28;20054;-65
2023/07/19 03:55:33;;;;;;;8.35;5.03;;;;;;;22.03;60.15;96397.47;5115124;28;20142;-65
2023/07/19 03:58:01;;;;;;;5.35;4.68;;;;;;;22.43;58.79;96406.44;5115100;28;20143;-65
2023/07/19 04:00:29;;;;;;;7.15;4.72;;;;;;;22.80;57.97;96393.50;5115168;28;20054;-65
2023/07/19 04:02:56;;;;;;;9.57;4.97;;;;;;;23.17;56.20;96392.81;5115187;28;20039;-66
2023/07/19 04:05:23;;;;;;;5.78;4.93;;;;;;;23.58;54.27;96383.78;5115437;28;20487;-65
2023/07/19 04:07:50;;;;;;;9.70;4.68;;;;;;;23.94;53.29;96388.47;5115059;28;20043;-65
2023/07/19 04:10:18;;;;;;;6.43;4.35;;;;;;;24.27;53.00;96385.41;5115010;28;20048;-66
2023/07/19 04:12:45;;;;;;;5.45;4.70;;;;;;;24.60;51.70;96383.09;5114895;28;20100;-66
2023/07/19 04:15:14;;;;;;;5.13;4.50;;;;;;;24.88;51.58;96374.19;5114854;28;20047;-66
2023/07/19 04:17:41;;;;;;;6.72;4.65;;;;;;;25.32;50.88;96373.41;5114784;28;20152;-65
2023/07/19 04:20:09;;;;;;;5.82;4.20;;;;;;;25.63;49.48;96382.84;5113971;28;20047;-66
2023/07/19 04:22:36;;;;;;;6.43;4.07;;;;;;;25.90;49.21;96386.34;5114687;28;20463;-65
2023/07/19 04:25:04;;;;;;;8.05;4.78;;;;;;;26.19;48.29;96383.31;5114708;28;20047;-66
2023/07/19 04:27:32;;;;;;;9.02;4.72;;;;;;;26.46;47.13;96386.78;5114743;28;20044;-65
2023/07/19 04:29:59;;;;;;;6.82;4.53;;;;;;;26.79;47.94;96383.34;5114579;28;20054;-66
2023/07/19 04:32:28;;;;;;;6.00;4.32;;;;;;;27.18;46.98;96378.41;5114499;28;20043;-65
2023/07/19 04:34:55;;;;;;;9.15;4.63;;;;;;;27.59;45.18;96378.38;5114456;28;20079;-65
2023/07/19 04:37:22;;;;;;;7.35;4.65;;;;;;;27.93;47.40;96373.78;5114385;28;20047;-66
2023/07/19 04:39:50;;;;;;;6.38;4.30;;;;;;;28.34;46.19;96380.91;5114264;28;20506;-66
2023/07/19 04:42:17;;;;;;;9.50;4.22;;;;;;;28.62;45.28;96375.03;5114309;28;20127;-66
2023/07/19 04:44:44;;;;;;;11.32;4.57;;;;;;;29.04;46.90;96374.78;5114161;28;20044;-66
2023/07/19 04:47:12;;;;;;;8.02;4.55;;;;;;;29.38;45.63;96383.47;5114305;28;20052;-66
2023/07/19 04:49:40;;;;;;;7.57;4.43;;;;;;;29.70;44.27;96386.03;5114331;28;20075;-65
2023/07/19 04:52:08;;;;;;;8.30;4.68;;;;;;;30.00;42.48;96386.91;5114450;28;20374;-67
2023/07/19 04:54:36;;;;;;;6.18;4.63;;;;;;;30.28;42.02;96388.16;5114271;28;20046;-65
2023/07/19 04:57:03;;;;;;;8.50;4.68;;;;;;;30.58;42.23;96398.88;5114123;28;20134;-65
2023/07/19 04:59:30;;;;;;;5.00;4.18;;;;;;;30.91;43.31;96396.78;5113997;28;20489;-65
2023/07/19 05:01:57;;;;;;;8.30;4.28;;;;;;;31.14;40.81;96392.03;5114298;28;20492;-66
2023/07/19 05:04:24;;;;;;;9.23;4.63;;;;;;;31.47;42.31;96395.25;5114014;28;20613;-66
2023/07/19 05:06:52;;;;;;;6.68;4.20;;;;;;;31.74;42.38;96401.72;5114017;28;20084;-66
2023/07/19 05:09:20;;;;;;;6.72;4.57;;;;;;;31.96;40.13;96398.16;5114157;28;20040;-66
2023/07/19 05:11:48;;;;;;;5.13;4.22;;;;;;;32.16;42.89;96390.13;5113771;28;20420;-66
2023/07/19 05:14:15;;;;;;;7.22;4.00;;;;;;;32.42;41.45;96388.59;5114218;28;20127;-65
2023/07/19 05:16:42;;;;;;;7.45;4.07;;;;;;;32.69;40.86;96390.59;5113817;28;20047;-66
2023/07/19 05:19:09;;;;;;;8.25;4.40;;;;;;;32.86;40.28;96389.19;5113818;28;20382;-66
2023/07/19 05:21:36;;;;;;;5.35;4.57;;;;;;;33.05;42.29;96394.06;5113743;28;20079;-66
2023/07/19 05:24:05;;;;;;;4.65;4.15;;;;;;;33.24;42.02;96395.13;5113660;28;20402;-66
2023/07/19 05:26:32;;;;;;;7.10;4.20;;;;;;;33.40;41.61;96389.28;5113647;28;20051;-66
2023/07/19 05:28:59;;;;;;;7.63;4.15;;;;;;;33.50;39.58;96391.56;5113602;28;20044;-65
2023/07/19 05:31:27;;;;;;;5.50;4.30;;;;;;;33.65;40.79;96388.69;5113482;28;20096;-66
2023/07/19 05:33:54;;;;;;;5.95;4.53;;;;;;;33.86;38.95;96386.78;5113632;28;20047;-66
2023/07/19 05:36:21;;;;;;;6.35;3.75;;;;;;;34.09;39.73;96390.06;5113584;28;20139;-65
2023/07/19 05:38:48;;;;;;;4.63;4.15;;;;;;;34.29;38.66;96392.78;5113427;28;20139;-65
2023/07/19 05:41:16;;;;;;;4.95;4.10;;;;;;;34.51;37.80;96400.63;5113462;28;20047;-66
2023/07/19 05:43:44;;;;;;;6.30;4.50;;;;;;;34.63;35.89;96393.47;5113477;28;20130;-66
2023/07/19 05:46:11;;;;;;;4.90;4.30;;;;;;;34.78;36.15;96398.66;5113269;28;20056;-66
2023/07/19 05:48:38;;;;;;;9.23;4.93;;;;;;;34.96;37.52;96391.66;5113474;28;20047;-65
2023/07/19 05:51:07;;;;;;;9.30;4.93;;;;;;;35.07;35.40;96400.16;5113410;28;20046;-66
2023/07/19 05:53:34;;;;;;;5.75;4.20;;;;;;;35.19;35.48;96403.03;5113389;28;20087;-65
2023/07/19 05:56:01;;;;;;;11.60;4.43;;;;;;;35.32;35.38;96399.38;5113604;28;20039;-65
2023/07/19 05:58:30;;;;;;;6.70;4.88;;;;;;;35.42;33.24;96400.56;5113319;28;20048;-66
2023/07/19 06:00:57;;;;;;;7.60;4.50;;;;;;;35.62;32.91;96404.16;5113327;28;20044;-65
2023/07/19 06:03:25;;;;;;;11.25;4.82;;;;;;;35.73;33.72;96410.81;5113287;28;20048;-65
2023/07/19 06:05:51;;;;;;;6.65;4.70;;;;;;;35.91;33.49;96402.66;5113355;28;20126;-64
2023/07/19 06:08:19;;;;;;;7.40;4.60;;;;;;;36.06;32.85;96409.66;5113245;28;20058;-65
2023/07/19 06:10:46;;;;;;;6.65;5.10;;;;;;;36.16;33.10;96409.97;5113253;28;20054;-66
2023/07/19 06:13:14;;;;;;;7.05;4.75;;;;;;;36.03;30.86;96404.66;5113523;28;20052;-65
2023/07/19 06:15:42;;;;;;;6.47;4.70;;;;;;;36.07;33.25;96411.31;5113112;28;20127;-65
2023/07/19 06:18:10;;;;;;;8.75;4.50;;;;;;;36.26;32.92;96405.88;5113013;28;20055;-66
2023/07/19 06:20:37;;;;;;;8.23;4.20;;;;;;;36.44;33.63;96401.53;5113241;28;20148;-64
2023/07/19 06:23:05;;;;;;;6.82;4.57;;;;;;;36.41;30.84;96400.91;5113130;28;20051;-65
2023/07/19 06:25:32;;;;;;;5.00;4.18;;;;;;;35.95;27.55;96388.63;5113076;28;20050;-65
2023/07/19 06:27:59;;;;;;;4.22;3.83;;;;;;;35.12;28.83;96386.75;5113100;28;20100;-65
2023/07/19 06:30:27;;;;;;;5.50;4.63;;;;;;;35.07;32.83;96389.28;5113025;28;20051;-66
2023/07/19 06:32:56;;;;;;;8.40;4.57;;;;;;;35.21;32.32;96390.88;5113135;28;20412;-64
2023/07/19 06:35:23;;;;;;;4.90;3.92;;;;;;;35.40;29.39;96401.84;5113018;28;20043;-65
2023/07/19 06:37:50;;;;;;;9.82;3.95;;;;;;;35.28;27.16;96394.38;5113011;28;20047;-65
2023/07/19 06:40:17;;;;;;;9.60;3.78;;;;;;;35.27;27.88;96389.16;5112986;28;20056;-64
2023/07/19 06:42:44;;;;;;;4.03;3.72;;;;;;;35.20;29.42;96393.81;5114135;28;20047;-65
2023/07/19 06:45:12;;;;;;;6.88;4.00;;;;;;;35.26;28.93;96399.22;5116599;28;20051;-65
2023/07/19 06:47:39;;;;;;;4.82;3.40;;;;;;;35.05;28.54;96389.50;5116550;28;20050;-65
2023/07/19 06:50:09;;;;;;;5.38;3.75;;;;;;;35.04;27.62;96388.66;5116625;28;20050;-66
2023/07/19 06:52:36;;;;;;;7.90;3.75;;;;;;;34.98;27.27;96392.28;5116511;28;20400;-65
2023/07/19 06:55:04;;;;;;;6.75;3.85;;;;;;;35.24;28.96;96392.34;5116419;28;20079;-66
2023/07/19 06:57:32;;;;;;;7.43;4.00;;;;;;;35.47;28.55;96397.19;5116700;28;20047;-64
2023/07/19 06:59:59;;;;;;;6.97;3.97;;;;;;;35.60;27.36;96395.41;5116339;28;20047;-64
2023/07/19 07:02:26;;;;;;;5.63;3.30;;;;;;;35.69;25.78;96396.81;5116413;28;20046;-66
2023/07/19 07:04:53;;;;;;;7.25;3.45;;;;;;;35.60;26.29;96395.41;5116372;28;20054;-66
2023/07/19 07:07:22;;;;;;;4.15;3.67;;;;;;;35.71;27.15;96399.31;5116388;28;20485;-65
2023/07/19 07:09:49;;;;;;;4.95;4.07;;;;;;;35.90;26.99;96394.72;5116370;28;20123;-65
2023/07/19 07:12:16;;;;;;;6.80;3.55;;;;;;;36.13;27.00;96382.34;5116210;27;20558;-64
2023/07/19 07:14:43;;;;;;;4.38;3.50;;;;;;;36.40;25.95;96387.53;5116216;28;20062;-65
2023/07/19 07:17:10;;;;;;;7.38;3.63;;;;;;;36.47;26.34;96382.81;5116256;28;20039;-66
2023/07/19 07:19:37;;;;;;;4.40;3.40;;;;;;;36.34;25.51;96391.16;5115870;28;20135;-66
2023/07/19 07:22:05;;;;;;;6.72;3.58;;;;;;;36.32;23.60;96387.84;5115932;28;20043;-65
2023/07/19 07:24:34;;;;;;;3.67;3.38;;;;;;;36.40;25.24;96380.19;5115899;28;20089;-64
2023/07/19 07:27:03;;;;;;;7.32;3.25;;;;;;;35.96;23.25;96379.41;5115913;28;20044;-64
2023/07/19 07:29:30;;;;;;;4.50;3.60;;;;;;;35.91;23.34;96374.66;5115692;28;20083;-65
2023/07/19 07:31:57;;;;;;;6.38;3.50;;;;;;;36.00;23.28;96373.28;5115742;28;20044;-65
2023/07/19 07:34:24;;;;;;;5.43;3.53;;;;;;;36.24;22.69;96373.47;5115792;28;20043;-65
2023/07/19 07:36:51;;;;;;;5.35;3.10;;;;;;;36.35;23.05;96376.50;5116048;28;20040;-65
2023/07/19 07:39:19;;;;;;;4.40;3.30;;;;;;;36.49;24.04;96366.28;5115442;28;20077;-65
2023/07/19 07:41:47;;;;;;;3.95;3.35;;;;;;;36.86;23.95;96370.81;5115465;28;20047;-65
2023/07/19 07:44:15;;;;;;;5.57;3.65;;;;;;;37.11;23.45;96378.03;5115587;28;20047;-65
2023/07/19 07:46:42;;;;;;;5.72;3.55;;;;;;;37.22;24.31;96371.78;5115574;28;20131;-65
2023/07/19 07:49:09;;;;;;;4.15;3.00;;;;;;;37.09;22.06;96375.53;5115521;28;20051;-64
2023/07/19 07:51:36;;;;;;;4.20;2.60;;;;;;;36.79;21.46;96374.50;5115276;28;20040;-65
2023/07/19 07:54:03;;;;;;;4.32;3.03;;;;;;;36.72;20.83;96368.28;5115549;28;20044;-65
2023/07/19 07:56:30;;;;;;;5.38;3.40;;;;;;;36.70;21.92;96353.25;5115189;28;20135;-66
2023/07/19 07:58:59;;;;;;;3.35;3.05;;;;;;;36.83;24.21;96360.41;5115081;28;20135;-65
2023/07/19 08:01:26;;;;;;;5.47;3.20;;;;;;;36.67;20.19;96368.13;5115340;28;20386;-65
2023/07/19 08:03:53;;;;;;;5.40;2.83;;;;;;;36.59;20.50;96363.81;5115222;28;20051;-65
2023/07/19 08:06:20;;;;;;;3.03;2.70;;;;;;;36.35;20.08;96360.19;5115123;28;20086;-65
2023/07/19 08:08:48;;;;;;;3.50;2.97;;;;;;;36.40;20.28;96361.16;5115132;28;20118;-64
2023/07/19 08:11:15;;;;;;;4.38;3.00;;;;;;;36.42;20.27;96361.72;5115058;28;20039;-64
2023/07/19 08:13:42;;;;;;;4.35;3.22;;;;;;;36.40;21.22;96363.03;5115013;28;20050;-65
2023/07/19 08:16:10;;;;;;;3.40;3.10;;;;;;;36.08;22.44;96363.19;5114819;28;20047;-65
2023/07/19 08:18:37;;;;;;;4.35;3.30;;;;;;;36.20;23.90;96358.66;5114861;28;20485;-64
2023/07/19 08:21:07;;;;;;;4.43;3.38;;;;;;;36.13;21.18;96360.59;5114750;28;20047;-64
2023/07/19 08:23:34;;;;;;;3.38;2.95;;;;;;;36.17;20.37;96353.63;5114897;28;20440;-65
2023/07/19 08:26:02;;;;;;;8.40;3.38;;;;;;;36.31;22.78;96358.94;5114741;28;20455;-64
2023/07/19 08:28:29;;;;;;;5.30;3.30;;;;;;;36.54;20.31;96353.63;5114751;28;20477;-64
2023/07/19 08:30:57;;;;;;;5.57;3.13;;;;;;;36.80;21.66;96353.53;5114866;28;20057;-65
2023/07/19 08:33:28;;;;;;;3.97;2.92;;;;;;;37.14;20.78;96353.03;5114496;28;20400;-65
2023/07/19 08:35:55;;;;;;;4.53;3.28;;;;;;;36.85;22.21;96345.50;5114452;28;20062;-65
2023/07/19 08:38:22;;;;;;;4.97;3.15;;;;;;;36.73;21.74;96345.47;5114723;28;20055;-63
2023/07/19 08:41:00;;;;;;;4.50;3.63;;;;;;;36.84;22.58;96345.72;5114378;28;20043;-64
2023/07/19 08:43:28;;;;;;;10.00;4.30;;;;;;;37.00;22.22;96341.50;5114326;28;20044;-65
2023/07/19 08:45:55;;;;;;;7.28;3.40;;;;;;;37.24;21.73;96347.88;5114278;28;20048;-64
2023/07/19 08:48:23;;;;;;;6.80;4.03;;;;;;;37.46;23.16;96347.28;5114291;28;20465;-65
2023/07/19 08:50:55;;;;;;;4.03;3.50;;;;;;;37.81;22.24;96348.41;5114224;28;20130;-64
2023/07/19 08:53:22;;;;;;;4.47;3.30;;;;;;;38.00;20.64;96340.91;5114094;28;20048;-64
2023/07/19 08:55:50;;;;;;;5.97;3.75;;;;;;;38.02;21.96;96346.13;5114082;28;20071;-64
2023/07/19 08:58:18;;;;;;;5.65;3.38;;;;;;;37.91;20.59;96339.59;5114115;28;20044;-63
2023/07/19 09:00:46;;;;;;;3.70;3.40;;;;;;;37.73;22.79;96344.13;5113945;28;20492;-65
2023/07/19 09:03:14;;;;;;;4.10;3.50;;;;;;;37.44;20.88;96343.16;5114042;28;20043;-64
2023/07/19 09:05:42;;;;;;;4.82;3.42;;;;;;;37.13;20.06;96337.72;5113557;28;20571;-64
2023/07/19 09:08:10;;;;;;;3.80;3.38;;;;;;;36.89;21.56;96330.34;5113836;28;20050;-64
2023/07/19 09:10:38;;;;;;;3.80;3.42;;;;;;;37.05;22.33;96330.75;5113964;28;20044;-64
2023/07/19 09:13:06;;;;;;;3.60;3.30;;;;;;;37.31;22.40;96328.66;5113890;28;20104;-64
2023/07/19 09:15:36;;;;;;;5.43;3.80;;;;;;;37.57;22.46;96325.72;5113920;28;20059;-64
2023/07/19 09:18:05;;;;;;;4.00;3.67;;;;;;;37.76;21.76;96324.56;5113787;28;20481;-64
2023/07/19 09:20:34;;;;;;;3.97;3.58;;;;;;;37.84;22.95;96322.53;5114074;28;20484;-64
2023/07/19 09:23:04;;;;;;;4.20;3.80;;;;;;;37.67;22.62;96325.94;5113785;28;20039;-65
2023/07/19 09:25:33;;;;;;;5.82;3.83;;;;;;;37.32;20.46;96315.88;5114225;28;20047;-64
2023/07/19 09:28:06;;;;;;;5.17;3.70;;;;;;;37.10;22.20;96317.25;5113684;28;20374;-64
2023/07/19 09:30:34;;;;;;;9.32;3.50;;;;;;;36.67;22.22;96310.94;5113687;28;20324;-63
2023/07/19 09:33:02;;;;;;;4.18;3.42;;;;;;;36.34;22.49;96313.06;5113882;28;20051;-63
2023/07/19 09:35:30;;;;;;;10.35;3.92;;;;;;;36.00;22.88;96301.72;5113569;28;20044;-64
2023/07/19 09:37:58;;;;;;;4.28;3.63;;;;;;;35.81;23.16;96301.72;5113447;28;20043;-65
2023/07/19 09:40:26;;;;;;;4.38;3.42;;;;;;;35.75;23.43;96302.63;5113412;28;20058;-63
2023/07/19 09:42:55;;;;;;;4.65;3.80;;;;;;;35.45;23.71;96304.13;5113430;28;20086;-63
2023/07/19 09:45:27;;;;;;;4.80;3.72;;;;;;;35.42;24.05;96307.31;5113143;28;20086;-64
2023/07/19 09:47:56;;;;;;;4.25;3.40;;;;;;;35.53;25.34;96301.16;5113521;28;20052;-63
2023/07/19 09:50:25;;;;;;;3.97;3.40;;;;;;;35.98;24.09;96290.25;5113527;28;20404;-64
2023/07/19 09:52:56;;;;;;;5.55;3.53;;;;;;;36.29;23.03;96297.41;5113500;28;20076;-65
2023/07/19 09:55:23;;;;;;;6.07;3.95;;;;;;;36.40;22.54;96294.97;5113439;28;20075;-64
2023/07/19 09:57:51;;;;;;;4.07;3.55;;;;;;;36.21;22.99;96292.31;5113306;28;20500;-65
2023/07/19 10:00:21;;;;;;;4.22;3.30;;;;;;;36.20;22.91;96282.47;5113170;28;20104;-63
2023/07/19 10:02:48;;;;;;;4.28;3.47;;;;;;;36.06;24.64;96284.50;5113345;28;20048;-65
2023/07/19 10:05:15;;;;;;;7.88;3.65;;;;;;;36.21;23.45;96262.38;5113329;28;20058;-64
2023/07/19 10:07:48;;;;;;;4.47;3.38;;;;;;;36.05;22.61;96261.06;5113458;28;20075;-65
2023/07/19 10:10:16;;;;;;;4.45;3.70;;;;;;;35.88;23.84;96261.69;5113187;28;20086;-63
2023/07/19 10:12:48;;;;;;;8.75;3.38;;;;;;;35.77;23.03;96254.28;5113120;28;20047;-64
2023/07/19 10:15:16;;;;;;;4.40;3.22;;;;;;;35.90;23.73;96254.13;5113132;28;20114;-65
2023/07/19 10:17:58;;;;;;;4.95;3.70;;;;;;;36.00;23.23;96255.50;5114633;28;20083;-64
2023/07/19 10:20:28;;;;;;;6.53;3.55;;;;;;;35.95;25.12;96253.44;5116985;28;20047;-65
2023/07/19 10:22:57;;;;;;;10.18;3.95;;;;;;;35.74;23.13;96252.88;5117138;28;20414;-64
2023/07/19 10:25:27;;;;;;;4.45;3.92;;;;;;;35.70;23.46;96248.94;5117249;27;20043;-64
2023/07/19 10:28:05;;;;;;;7.97;3.65;;;;;;;35.61;23.32;96248.38;5116911;28;20052;-64
2023/07/19 10:30:55;;;;;;;6.25;3.65;;;;;;;35.32;24.76;96260.78;5116878;28;20058;-64
2023/07/19 10:33:26;;;;;;;4.97;3.30;;;;;;;35.18;25.47;96254.66;5116841;28;20096;-64
2023/07/19 10:35:55;;;;;;;5.03;3.80;;;;;;;35.12;24.48;96254.47;5116823;28;20501;-64
2023/07/19 10:38:23;;;;;;;6.68;3.90;;;;;;;35.20;25.28;96247.94;5116748;27;20040;-63
2023/07/19 10:41:01;;;;;;;6.03;4.10;;;;;;;35.29;23.36;96240.34;5116563;28;20059;-63
2023/07/19 10:43:29;;;;;;;11.20;4.43;;;;;;;35.59;25.31;96236.06;5116539;28;20120;-64
2023/07/19 10:45:59;;;;;;;4.60;3.55;;;;;;;35.96;26.15;96243.41;5116497;28;20131;-63
2023/07/19 10:48:29;;;;;;;5.47;3.53;;;;;;;36.16;23.26;96241.25;5116685;28;20051;-64
2023/07/19 10:50:58;;;;;;;4.43;3.60;;;;;;;35.90;23.57;96234.25;5116530;28;20511;-64
2023/07/19 10:53:25;;;;;;;4.57;3.77;;;;;;;35.69;23.88;96227.41;5116563;28;20078;-64
2023/07/19 10:55:53;;;;;;;5.20;4.28;;;;;;;35.69;26.44;96230.13;5116319;28;20401;-63
2023/07/19 10:58:21;;;;;;;4.22;3.78;;;;;;;35.86;25.38;96222.19;5116354;28;20051;-63
2023/07/19 11:00:49;;;;;;;5.53;3.78;;;;;;;36.12;24.78;96220.19;5116277;28;20104;-63
2023/07/19 11:03:17;;;;;;;3.83;3.42;;;;;;;36.27;24.55;96217.06;5116739;28;20044;-63
2023/07/19 11:05:50;;;;;;;4.90;4.07;;;;;;;36.35;23.45;96216.72;5116503;28;20052;-64
2023/07/19 11:08:24;;;;;;;8.35;4.07;;;;;;;36.13;23.85;96209.06;5116332;28;20047;-64
2023/07/19 11:10:52;;;;;;;5.63;4.15;;;;;;;36.01;25.65;96203.56;5116181;28;20075;-64
2023/07/19 11:13:23;;;;;;;4.65;4.10;;;;;;;35.70;23.75;96197.28;5116062;28;20047;-64
2023/07/19 11:15:52;;;;;;;5.70;3.33;;;;;;;35.51;24.96;96197.25;5115967;28;20051;-65
2023/07/19 11:18:27;;;;;;;7.85;3.85;;;;;;;35.65;25.29;96197.09;5116067;28;20055;-65
2023/07/19 11:20:57;;;;;;;3.90;3.60;;;;;;;35.84;25.04;96191.69;5115914;28;20481;-65
2023/07/19 11:23:24;;;;;;;4.45;3.60;;;;;;;35.79;24.31;96195.88;5116067;28;20074;-65
2023/07/19 11:25:52;;;;;;;8.55;3.80;;;;;;;35.86;24.14;96194.97;5116031;28;20067;-64
2023/07/19 11:28:35;;;;;;;4.32;3.92;;;;;;;35.82;24.18;96185.63;5115436;28;20050;-64
2023/07/19 11:31:05;;;;;;;5.85;3.83;;;;;;;35.76;23.73;96184.66;5115700;28;20043;-63
2023/07/19 11:33:36;;;;;;;5.30;3.50;;;;;;;35.63;24.95;96181.00;5115925;28;20428;-65
2023/07/19 11:36:09;;;;;;;6.10;3.90;;;;;;;35.84;27.53;96178.06;5115800;28;20044;-65
2023/07/19 11:38:40;;;;;;;4.22;3.83;;;;;;;35.90;24.35;96182.56;5115766;28;20051;-65